This is the latest recevied weather packets stored in our database for station/object HK3BJ-10. If no packets are shown the sender has not sent any weather packets the latest 10 day(s).
| Time | Temp. | Humidity | Pressure | Rain* | Wind** | Luminosity | Snow |
|---|---|---|---|---|---|---|---|
| 1788049716 | 15.56° C | 67% | 1016 hPa | 0 mm | - | - | - |
| 1788048771 | 15.56° C | 67% | 1016 hPa | 0 mm | - | - | - |
| 1788047826 | 17.78° C | 52% | 1016 hPa | 0 mm | - | - | - |
| 1788046868 | 17.22° C | 52% | 1015 hPa | 0 mm | - | - | - |
| 1788045926 | 17.22° C | 52% | 1014 hPa | 0 mm | - | - | - |
| 1788044983 | 17.78° C | 52% | 1014 hPa | 0 mm | - | - | - |
| 1788044035 | 18.89° C | 48% | 1014 hPa | 0 mm | - | - | - |
| 1788043090 | 19.44° C | 46% | 1014 hPa | 0 mm | - | - | - |
| 1788042129 | 19.44° C | 46% | 1013 hPa | 0 mm | - | - | - |
| 1788041143 | 19.44° C | 46% | 1013 hPa | 0 mm | - | - | - |
| 1788040197 | 19.44° C | 46% | 1013 hPa | 0 mm | - | - | - |
| 1788039253 | 20° C | 48% | 1013 hPa | 0 mm | - | - | - |
| 1788038306 | 20° C | 48% | 1012 hPa | 0 mm | - | - | - |
| 1788037332 | 20° C | 48% | 1012 hPa | 0 mm | - | - | - |
| 1788036381 | 20° C | 49% | 1012 hPa | 0 mm | - | - | - |
| 1788035440 | 20° C | 51% | 1012 hPa | 0 mm | - | - | - |
| 1788034502 | 20° C | 53% | 1011 hPa | 0 mm | - | - | - |
| 1788033557 | 20° C | 55% | 1011 hPa | 0 mm | - | - | - |
| 1788032616 | 20° C | 57% | 1011 hPa | 0 mm | - | - | - |
| 1788031675 | 20° C | 59% | 1011 hPa | 0 mm | - | - | - |
| 1788030729 | 20° C | 61% | 1011 hPa | 0 mm | - | - | - |
| 1788029784 | 20° C | 63% | 1011 hPa | 0 mm | - | - | - |
| 1788028839 | 20° C | 66% | 1012 hPa | 0 mm | - | - | - |
| 1788027887 | 20° C | 69% | 1013 hPa | 0 mm | - | - | - |
| 1788026945 | 20° C | 69% | 1013 hPa | 0 mm | - | - | - |
* Rain latest hour (hover to see other rain measurements)
** Current wind speed in m/s (hover to see current wind gust speed)